sensor_id;sensor_type;location;lat;lon;timestamp;P1;durP1;ratioP1;P2;durP2;ratioP2
42704;SDS011;28342;42.594;23.414;2022-09-03T00:02:08;17.48;;;8.55;;
42704;SDS011;28342;42.594;23.414;2022-09-03T00:07:10;14.77;;;8.00;;
42704;SDS011;28342;42.594;23.414;2022-09-03T00:09:41;12.48;;;9.40;;
42704;SDS011;28342;42.594;23.414;2022-09-03T00:12:13;22.50;;;9.65;;
42704;SDS011;28342;42.594;23.414;2022-09-03T00:14:48;10.73;;;7.72;;
42704;SDS011;28342;42.594;23.414;2022-09-03T00:17:18;14.98;;;8.45;;
42704;SDS011;28342;42.594;23.414;2022-09-03T00:19:53;11.70;;;8.40;;
42704;SDS011;28342;42.594;23.414;2022-09-03T00:22:31;12.07;;;8.15;;
42704;SDS011;28342;42.594;23.414;2022-09-03T00:25:04;11.30;;;8.07;;
42704;SDS011;28342;42.594;23.414;2022-09-03T00:27:38;13.48;;;8.20;;
42704;SDS011;28342;42.594;23.414;2022-09-03T00:30:09;10.02;;;7.30;;
42704;SDS011;28342;42.594;23.414;2022-09-03T00:35:31;12.38;;;7.10;;
42704;SDS011;28342;42.594;23.414;2022-09-03T00:38:01;10.25;;;6.78;;
42704;SDS011;28342;42.594;23.414;2022-09-03T00:40:34;11.73;;;7.30;;
42704;SDS011;28342;42.594;23.414;2022-09-03T00:54:24;13.73;;;7.80;;
42704;SDS011;28342;42.594;23.414;2022-09-03T00:59:57;14.93;;;8.23;;
42704;SDS011;28342;42.594;23.414;2022-09-03T01:02:34;11.02;;;7.72;;
42704;SDS011;28342;42.594;23.414;2022-09-03T01:05:15;12.10;;;7.45;;
42704;SDS011;28342;42.594;23.414;2022-09-03T01:07:53;11.45;;;7.90;;
42704;SDS011;28342;42.594;23.414;2022-09-03T01:13:16;15.82;;;8.27;;
42704;SDS011;28342;42.594;23.414;2022-09-03T01:18:35;14.07;;;7.97;;
42704;SDS011;28342;42.594;23.414;2022-09-03T01:21:17;12.60;;;8.38;;
42704;SDS011;28342;42.594;23.414;2022-09-03T01:24:38;12.13;;;8.30;;
42704;SDS011;28342;42.594;23.414;2022-09-03T01:31:49;10.43;;;8.07;;
42704;SDS011;28342;42.594;23.414;2022-09-03T01:34:52;11.57;;;8.63;;
42704;SDS011;28342;42.594;23.414;2022-09-03T01:38:04;13.23;;;8.48;;
42704;SDS011;28342;42.594;23.414;2022-09-03T01:45:53;11.48;;;7.72;;
42704;SDS011;28342;42.594;23.414;2022-09-03T01:51:08;10.25;;;7.97;;
42704;SDS011;28342;42.594;23.414;2022-09-03T01:59:46;9.75;;;7.95;;
42704;SDS011;28342;42.594;23.414;2022-09-03T02:02:23;9.63;;;7.28;;
42704;SDS011;28342;42.594;23.414;2022-09-03T02:05:24;10.65;;;7.88;;
42704;SDS011;28342;42.594;23.414;2022-09-03T02:07:53;12.48;;;7.90;;
42704;SDS011;28342;42.594;23.414;2022-09-03T02:10:21;11.13;;;7.35;;
42704;SDS011;28342;42.594;23.414;2022-09-03T02:12:54;13.05;;;8.95;;
42704;SDS011;28342;42.594;23.414;2022-09-03T02:15:23;11.32;;;8.57;;
42704;SDS011;28342;42.594;23.414;2022-09-03T02:17:51;12.95;;;8.18;;
42704;SDS011;28342;42.594;23.414;2022-09-03T02:20:21;11.63;;;8.65;;
42704;SDS011;28342;42.594;23.414;2022-09-03T02:22:50;15.77;;;7.55;;
42704;SDS011;28342;42.594;23.414;2022-09-03T02:25:18;9.68;;;7.82;;
42704;SDS011;28342;42.594;23.414;2022-09-03T02:27:46;12.95;;;8.82;;
42704;SDS011;28342;42.594;23.414;2022-09-03T02:30:13;12.68;;;8.55;;
42704;SDS011;28342;42.594;23.414;2022-09-03T02:32:38;12.32;;;8.88;;
42704;SDS011;28342;42.594;23.414;2022-09-03T02:35:04;10.13;;;7.47;;
42704;SDS011;28342;42.594;23.414;2022-09-03T02:37:29;11.57;;;7.90;;
42704;SDS011;28342;42.594;23.414;2022-09-03T02:39:55;11.43;;;8.45;;
42704;SDS011;28342;42.594;23.414;2022-09-03T02:42:20;11.25;;;7.57;;
42704;SDS011;28342;42.594;23.414;2022-09-03T02:44:56;9.35;;;7.50;;
42704;SDS011;28342;42.594;23.414;2022-09-03T02:47:28;11.05;;;7.88;;
42704;SDS011;28342;42.594;23.414;2022-09-03T02:49:57;8.98;;;7.22;;
42704;SDS011;28342;42.594;23.414;2022-09-03T02:52:22;11.57;;;8.68;;
42704;SDS011;28342;42.594;23.414;2022-09-03T02:54:47;10.55;;;8.52;;
42704;SDS011;28342;42.594;23.414;2022-09-03T02:57:14;12.38;;;8.57;;
42704;SDS011;28342;42.594;23.414;2022-09-03T02:59:41;16.67;;;8.55;;
42704;SDS011;28342;42.594;23.414;2022-09-03T03:02:10;9.77;;;7.82;;
42704;SDS011;28342;42.594;23.414;2022-09-03T03:04:37;10.60;;;7.65;;
42704;SDS011;28342;42.594;23.414;2022-09-03T03:07:03;11.68;;;8.13;;
42704;SDS011;28342;42.594;23.414;2022-09-03T03:09:29;10.70;;;7.93;;
42704;SDS011;28342;42.594;23.414;2022-09-03T03:11:54;13.65;;;7.90;;
42704;SDS011;28342;42.594;23.414;2022-09-03T03:14:20;10.70;;;7.57;;
42704;SDS011;28342;42.594;23.414;2022-09-03T03:16:46;13.63;;;8.02;;
42704;SDS011;28342;42.594;23.414;2022-09-03T03:19:12;11.32;;;7.97;;
42704;SDS011;28342;42.594;23.414;2022-09-03T03:21:38;11.05;;;8.13;;
42704;SDS011;28342;42.594;23.414;2022-09-03T03:24:03;9.80;;;7.25;;
42704;SDS011;28342;42.594;23.414;2022-09-03T03:26:29;12.25;;;8.13;;
42704;SDS011;28342;42.594;23.414;2022-09-03T03:28:55;11.02;;;8.15;;
42704;SDS011;28342;42.594;23.414;2022-09-03T03:31:22;12.68;;;8.38;;
42704;SDS011;28342;42.594;23.414;2022-09-03T03:33:54;12.30;;;8.82;;
42704;SDS011;28342;42.594;23.414;2022-09-03T03:36:22;12.75;;;9.15;;
42704;SDS011;28342;42.594;23.414;2022-09-03T03:38:51;12.20;;;8.55;;
42704;SDS011;28342;42.594;23.414;2022-09-03T03:41:19;12.98;;;7.97;;
42704;SDS011;28342;42.594;23.414;2022-09-03T03:43:47;15.02;;;9.13;;
42704;SDS011;28342;42.594;23.414;2022-09-03T03:46:17;12.65;;;9.02;;
42704;SDS011;28342;42.594;23.414;2022-09-03T03:48:42;12.75;;;8.88;;
42704;SDS011;28342;42.594;23.414;2022-09-03T03:51:08;12.75;;;8.52;;
42704;SDS011;28342;42.594;23.414;2022-09-03T03:53:35;11.32;;;8.32;;
42704;SDS011;28342;42.594;23.414;2022-09-03T03:56:02;13.02;;;8.45;;
42704;SDS011;28342;42.594;23.414;2022-09-03T03:58:30;12.38;;;9.02;;
42704;SDS011;28342;42.594;23.414;2022-09-03T04:01:07;13.57;;;8.88;;
42704;SDS011;28342;42.594;23.414;2022-09-03T04:03:34;13.30;;;8.70;;
42704;SDS011;28342;42.594;23.414;2022-09-03T04:06:00;14.82;;;8.98;;
42704;SDS011;28342;42.594;23.414;2022-09-03T04:08:27;14.80;;;9.40;;
42704;SDS011;28342;42.594;23.414;2022-09-03T04:10:53;15.32;;;8.30;;
42704;SDS011;28342;42.594;23.414;2022-09-03T04:13:18;12.55;;;9.20;;
42704;SDS011;28342;42.594;23.414;2022-09-03T04:15:44;13.55;;;8.80;;
42704;SDS011;28342;42.594;23.414;2022-09-03T04:18:10;11.77;;;9.30;;
42704;SDS011;28342;42.594;23.414;2022-09-03T04:20:36;13.27;;;8.73;;
42704;SDS011;28342;42.594;23.414;2022-09-03T04:23:02;13.65;;;8.85;;
42704;SDS011;28342;42.594;23.414;2022-09-03T04:25:28;12.50;;;8.88;;
42704;SDS011;28342;42.594;23.414;2022-09-03T04:27:53;11.98;;;8.77;;
42704;SDS011;28342;42.594;23.414;2022-09-03T04:30:19;14.85;;;9.32;;
42704;SDS011;28342;42.594;23.414;2022-09-03T04:32:44;14.77;;;8.25;;
42704;SDS011;28342;42.594;23.414;2022-09-03T04:35:23;11.25;;;9.65;;
42704;SDS011;28342;42.594;23.414;2022-09-03T04:37:51;17.52;;;9.68;;
42704;SDS011;28342;42.594;23.414;2022-09-03T04:40:19;13.38;;;8.55;;
42704;SDS011;28342;42.594;23.414;2022-09-03T04:42:45;17.00;;;9.38;;
42704;SDS011;28342;42.594;23.414;2022-09-03T04:45:10;12.65;;;9.93;;
42704;SDS011;28342;42.594;23.414;2022-09-03T04:47:39;13.65;;;8.32;;
42704;SDS011;28342;42.594;23.414;2022-09-03T04:50:05;10.77;;;8.65;;
42704;SDS011;28342;42.594;23.414;2022-09-03T04:52:31;10.55;;;8.23;;
42704;SDS011;28342;42.594;23.414;2022-09-03T04:54:57;14.25;;;8.93;;
42704;SDS011;28342;42.594;23.414;2022-09-03T04:57:22;11.43;;;8.70;;
42704;SDS011;28342;42.594;23.414;2022-09-03T04:59:48;15.57;;;8.80;;
42704;SDS011;28342;42.594;23.414;2022-09-03T05:02:13;13.68;;;9.85;;
42704;SDS011;28342;42.594;23.414;2022-09-03T05:04:40;13.60;;;8.57;;
42704;SDS011;28342;42.594;23.414;2022-09-03T05:07:06;11.55;;;8.57;;
42704;SDS011;28342;42.594;23.414;2022-09-03T05:09:31;12.45;;;9.05;;
42704;SDS011;28342;42.594;23.414;2022-09-03T05:11:57;11.10;;;8.93;;
42704;SDS011;28342;42.594;23.414;2022-09-03T05:14:22;10.55;;;8.43;;
42704;SDS011;28342;42.594;23.414;2022-09-03T05:16:47;11.13;;;8.60;;
42704;SDS011;28342;42.594;23.414;2022-09-03T05:19:14;12.75;;;8.18;;
42704;SDS011;28342;42.594;23.414;2022-09-03T05:21:40;13.27;;;8.65;;
42704;SDS011;28342;42.594;23.414;2022-09-03T05:24:05;12.65;;;8.13;;
42704;SDS011;28342;42.594;23.414;2022-09-03T05:26:32;14.18;;;8.40;;
42704;SDS011;28342;42.594;23.414;2022-09-03T05:29:01;11.52;;;7.82;;
42704;SDS011;28342;42.594;23.414;2022-09-03T05:31:31;9.55;;;7.53;;
42704;SDS011;28342;42.594;23.414;2022-09-03T05:33:58;10.57;;;7.95;;
42704;SDS011;28342;42.594;23.414;2022-09-03T05:36:27;13.60;;;7.70;;
42704;SDS011;28342;42.594;23.414;2022-09-03T05:38:54;11.00;;;7.68;;
42704;SDS011;28342;42.594;23.414;2022-09-03T05:41:20;11.15;;;8.27;;
42704;SDS011;28342;42.594;23.414;2022-09-03T05:43:47;11.55;;;7.95;;
42704;SDS011;28342;42.594;23.414;2022-09-03T05:46:20;9.15;;;7.57;;
42704;SDS011;28342;42.594;23.414;2022-09-03T05:48:59;9.40;;;7.35;;
42704;SDS011;28342;42.594;23.414;2022-09-03T05:51:26;14.32;;;7.85;;
42704;SDS011;28342;42.594;23.414;2022-09-03T05:53:52;17.98;;;9.15;;
42704;SDS011;28342;42.594;23.414;2022-09-03T05:56:19;9.15;;;7.60;;
42704;SDS011;28342;42.594;23.414;2022-09-03T05:58:50;11.05;;;7.72;;
42704;SDS011;28342;42.594;23.414;2022-09-03T06:01:18;14.60;;;7.80;;
42704;SDS011;28342;42.594;23.414;2022-09-03T06:03:46;14.82;;;7.75;;
42704;SDS011;28342;42.594;23.414;2022-09-03T06:06:16;10.68;;;7.22;;
42704;SDS011;28342;42.594;23.414;2022-09-03T06:08:43;11.68;;;7.07;;
42704;SDS011;28342;42.594;23.414;2022-09-03T06:11:09;7.40;;;6.05;;
42704;SDS011;28342;42.594;23.414;2022-09-03T06:13:35;9.35;;;8.00;;
42704;SDS011;28342;42.594;23.414;2022-09-03T06:16:02;11.18;;;6.63;;
42704;SDS011;28342;42.594;23.414;2022-09-03T06:18:29;12.82;;;7.28;;
42704;SDS011;28342;42.594;23.414;2022-09-03T06:20:56;8.40;;;6.90;;
42704;SDS011;28342;42.594;23.414;2022-09-03T06:23:23;19.52;;;7.72;;
42704;SDS011;28342;42.594;23.414;2022-09-03T06:25:59;9.63;;;7.30;;
42704;SDS011;28342;42.594;23.414;2022-09-03T06:28:25;27.77;;;8.57;;
42704;SDS011;28342;42.594;23.414;2022-09-03T06:30:51;14.38;;;7.72;;
42704;SDS011;28342;42.594;23.414;2022-09-03T06:33:17;23.20;;;8.80;;
42704;SDS011;28342;42.594;23.414;2022-09-03T06:35:43;10.65;;;6.53;;
42704;SDS011;28342;42.594;23.414;2022-09-03T06:38:10;9.93;;;7.85;;
42704;SDS011;28342;42.594;23.414;2022-09-03T06:40:36;11.38;;;6.53;;
42704;SDS011;28342;42.594;23.414;2022-09-03T06:43:02;9.68;;;6.47;;
42704;SDS011;28342;42.594;23.414;2022-09-03T06:45:28;9.90;;;6.40;;
42704;SDS011;28342;42.594;23.414;2022-09-03T06:47:54;7.50;;;5.95;;
42704;SDS011;28342;42.594;23.414;2022-09-03T06:50:20;9.40;;;7.75;;
42704;SDS011;28342;42.594;23.414;2022-09-03T06:52:50;14.25;;;8.20;;
42704;SDS011;28342;42.594;23.414;2022-09-03T06:55:19;10.18;;;7.28;;
42704;SDS011;28342;42.594;23.414;2022-09-03T06:57:46;13.25;;;6.82;;
42704;SDS011;28342;42.594;23.414;2022-09-03T07:00:12;8.55;;;6.82;;
42704;SDS011;28342;42.594;23.414;2022-09-03T07:02:38;8.15;;;6.72;;
42704;SDS011;28342;42.594;23.414;2022-09-03T07:05:06;9.23;;;6.40;;
42704;SDS011;28342;42.594;23.414;2022-09-03T07:07:32;7.72;;;6.93;;
42704;SDS011;28342;42.594;23.414;2022-09-03T07:09:58;7.63;;;6.82;;
42704;SDS011;28342;42.594;23.414;2022-09-03T07:12:23;7.47;;;6.40;;
42704;SDS011;28342;42.594;23.414;2022-09-03T07:14:48;8.23;;;7.10;;
42704;SDS011;28342;42.594;23.414;2022-09-03T07:17:14;15.52;;;7.72;;
42704;SDS011;28342;42.594;23.414;2022-09-03T07:19:40;10.65;;;7.65;;
42704;SDS011;28342;42.594;23.414;2022-09-03T07:22:06;17.05;;;8.23;;
42704;SDS011;28342;42.594;23.414;2022-09-03T07:24:32;9.25;;;8.07;;
42704;SDS011;28342;42.594;23.414;2022-09-03T07:26:58;11.85;;;7.65;;
42704;SDS011;28342;42.594;23.414;2022-09-03T07:29:23;10.98;;;8.32;;
42704;SDS011;28342;42.594;23.414;2022-09-03T07:31:49;10.20;;;7.90;;
42704;SDS011;28342;42.594;23.414;2022-09-03T07:34:15;10.05;;;8.40;;
42704;SDS011;28342;42.594;23.414;2022-09-03T07:36:41;10.90;;;8.13;;
42704;SDS011;28342;42.594;23.414;2022-09-03T07:39:11;13.82;;;8.70;;
42704;SDS011;28342;42.594;23.414;2022-09-03T07:41:38;12.57;;;8.45;;
42704;SDS011;28342;42.594;23.414;2022-09-03T07:44:08;13.10;;;9.23;;
42704;SDS011;28342;42.594;23.414;2022-09-03T07:46:34;12.68;;;7.78;;
42704;SDS011;28342;42.594;23.414;2022-09-03T07:49:02;12.85;;;8.90;;
42704;SDS011;28342;42.594;23.414;2022-09-03T07:51:31;12.82;;;8.27;;
42704;SDS011;28342;42.594;23.414;2022-09-03T07:53:59;12.10;;;6.57;;
42704;SDS011;28342;42.594;23.414;2022-09-03T07:56:29;8.25;;;7.30;;
42704;SDS011;28342;42.594;23.414;2022-09-03T07:58:55;9.80;;;7.07;;
42704;SDS011;28342;42.594;23.414;2022-09-03T08:01:22;8.57;;;7.20;;
42704;SDS011;28342;42.594;23.414;2022-09-03T08:03:49;10.50;;;7.07;;
42704;SDS011;28342;42.594;23.414;2022-09-03T08:06:18;10.10;;;7.07;;
42704;SDS011;28342;42.594;23.414;2022-09-03T08:08:45;8.85;;;7.63;;
42704;SDS011;28342;42.594;23.414;2022-09-03T08:11:11;9.93;;;7.60;;
42704;SDS011;28342;42.594;23.414;2022-09-03T08:13:45;11.05;;;7.85;;
42704;SDS011;28342;42.594;23.414;2022-09-03T08:16:14;8.25;;;6.88;;
42704;SDS011;28342;42.594;23.414;2022-09-03T08:18:44;7.68;;;6.85;;
42704;SDS011;28342;42.594;23.414;2022-09-03T08:21:15;10.85;;;7.30;;
42704;SDS011;28342;42.594;23.414;2022-09-03T08:23:46;10.00;;;7.32;;
42704;SDS011;28342;42.594;23.414;2022-09-03T08:26:14;7.65;;;6.85;;
42704;SDS011;28342;42.594;23.414;2022-09-03T08:28:41;10.82;;;7.13;;
42704;SDS011;28342;42.594;23.414;2022-09-03T08:31:18;17.85;;;8.10;;
42704;SDS011;28342;42.594;23.414;2022-09-03T08:33:47;6.10;;;5.20;;
42704;SDS011;28342;42.594;23.414;2022-09-03T08:36:15;7.60;;;5.90;;
42704;SDS011;28342;42.594;23.414;2022-09-03T08:38:42;9.07;;;6.35;;
42704;SDS011;28342;42.594;23.414;2022-09-03T08:46:48;22.67;;;12.50;;
42704;SDS011;28342;42.594;23.414;2022-09-03T08:51:55;7.35;;;6.22;;
42704;SDS011;28342;42.594;23.414;2022-09-03T08:54:24;8.30;;;5.78;;
42704;SDS011;28342;42.594;23.414;2022-09-03T08:56:59;6.28;;;5.63;;
42704;SDS011;28342;42.594;23.414;2022-09-03T08:59:26;6.68;;;5.97;;
42704;SDS011;28342;42.594;23.414;2022-09-03T09:01:56;7.78;;;6.53;;
42704;SDS011;28342;42.594;23.414;2022-09-03T09:07:36;6.95;;;6.15;;
42704;SDS011;28342;42.594;23.414;2022-09-03T09:10:09;8.95;;;6.20;;
42704;SDS011;28342;42.594;23.414;2022-09-03T09:12:45;9.70;;;6.93;;
42704;SDS011;28342;42.594;23.414;2022-09-03T09:18:19;8.73;;;7.22;;
42704;SDS011;28342;42.594;23.414;2022-09-03T09:20:56;7.80;;;5.97;;
42704;SDS011;28342;42.594;23.414;2022-09-03T09:23:32;8.65;;;6.72;;
42704;SDS011;28342;42.594;23.414;2022-09-03T09:25:59;8.82;;;6.97;;
42704;SDS011;28342;42.594;23.414;2022-09-03T09:28:33;7.00;;;6.30;;
42704;SDS011;28342;42.594;23.414;2022-09-03T09:31:00;7.32;;;6.57;;
42704;SDS011;28342;42.594;23.414;2022-09-03T09:33:28;7.10;;;6.28;;
42704;SDS011;28342;42.594;23.414;2022-09-03T09:35:57;7.20;;;6.43;;
42704;SDS011;28342;42.594;23.414;2022-09-03T09:38:28;7.63;;;6.82;;
42704;SDS011;28342;42.594;23.414;2022-09-03T09:40:54;7.97;;;7.03;;
42704;SDS011;28342;42.594;23.414;2022-09-03T09:43:21;9.27;;;7.13;;
42704;SDS011;28342;42.594;23.414;2022-09-03T09:45:48;7.60;;;6.80;;
42704;SDS011;28342;42.594;23.414;2022-09-03T09:50:40;8.20;;;6.75;;
42704;SDS011;28342;42.594;23.414;2022-09-03T09:53:07;9.50;;;6.57;;
42704;SDS011;28342;42.594;23.414;2022-09-03T09:55:55;7.97;;;7.18;;
42704;SDS011;28342;42.594;23.414;2022-09-03T09:58:23;8.30;;;7.45;;
42704;SDS011;28342;42.594;23.414;2022-09-03T10:03:27;8.18;;;7.35;;
42704;SDS011;28342;42.594;23.414;2022-09-03T10:05:59;8.43;;;7.47;;
42704;SDS011;28342;42.594;23.414;2022-09-03T10:08:50;9.10;;;8.20;;
42704;SDS011;28342;42.594;23.414;2022-09-03T10:11:17;7.75;;;7.05;;
42704;SDS011;28342;42.594;23.414;2022-09-03T10:13:49;8.95;;;7.07;;
42704;SDS011;28342;42.594;23.414;2022-09-03T10:16:21;8.93;;;6.70;;
42704;SDS011;28342;42.594;23.414;2022-09-03T10:24:35;7.85;;;7.05;;
42704;SDS011;28342;42.594;23.414;2022-09-03T10:27:11;7.60;;;6.90;;
42704;SDS011;28342;42.594;23.414;2022-09-03T10:29:40;7.78;;;6.97;;
42704;SDS011;28342;42.594;23.414;2022-09-03T10:34:58;7.13;;;6.43;;
42704;SDS011;28342;42.594;23.414;2022-09-03T10:37:38;7.38;;;6.68;;
42704;SDS011;28342;42.594;23.414;2022-09-03T10:40:15;8.10;;;6.97;;
42704;SDS011;28342;42.594;23.414;2022-09-03T10:43:02;8.48;;;6.47;;
42704;SDS011;28342;42.594;23.414;2022-09-03T10:45:33;6.90;;;6.20;;
42704;SDS011;28342;42.594;23.414;2022-09-03T10:51:27;8.77;;;7.90;;
42704;SDS011;28342;42.594;23.414;2022-09-03T11:05:08;8.32;;;6.78;;
42704;SDS011;28342;42.594;23.414;2022-09-03T11:10:33;7.43;;;6.63;;
42704;SDS011;28342;42.594;23.414;2022-09-03T11:13:07;8.40;;;7.30;;
42704;SDS011;28342;42.594;23.414;2022-09-03T11:15:50;9.02;;;7.03;;
42704;SDS011;28342;42.594;23.414;2022-09-03T11:21:00;9.80;;;6.72;;
42704;SDS011;28342;42.594;23.414;2022-09-03T11:23:30;8.45;;;7.57;;
42704;SDS011;28342;42.594;23.414;2022-09-03T11:26:03;7.78;;;7.07;;
42704;SDS011;28342;42.594;23.414;2022-09-03T11:28:37;7.38;;;6.50;;
42704;SDS011;28342;42.594;23.414;2022-09-03T11:33:47;7.47;;;6.72;;
42704;SDS011;28342;42.594;23.414;2022-09-03T11:36:26;8.27;;;6.15;;
42704;SDS011;28342;42.594;23.414;2022-09-03T11:38:54;9.85;;;7.22;;
42704;SDS011;28342;42.594;23.414;2022-09-03T11:41:24;7.68;;;6.32;;
42704;SDS011;28342;42.594;23.414;2022-09-03T11:44:09;9.85;;;6.65;;
42704;SDS011;28342;42.594;23.414;2022-09-03T11:46:40;7.28;;;6.47;;
42704;SDS011;28342;42.594;23.414;2022-09-03T11:49:24;9.77;;;6.38;;
42704;SDS011;28342;42.594;23.414;2022-09-03T11:52:00;8.80;;;5.90;;
42704;SDS011;28342;42.594;23.414;2022-09-03T11:54:30;7.18;;;6.47;;
42704;SDS011;28342;42.594;23.414;2022-09-03T11:57:13;6.72;;;6.03;;
42704;SDS011;28342;42.594;23.414;2022-09-03T11:59:40;6.63;;;6.03;;
42704;SDS011;28342;42.594;23.414;2022-09-03T12:02:29;9.00;;;5.40;;
42704;SDS011;28342;42.594;23.414;2022-09-03T12:10:32;6.28;;;5.03;;
42704;SDS011;28342;42.594;23.414;2022-09-03T12:18:30;6.45;;;5.85;;
42704;SDS011;28342;42.594;23.414;2022-09-03T12:26:08;6.28;;;4.68;;
42704;SDS011;28342;42.594;23.414;2022-09-03T12:28:40;9.35;;;5.40;;
42704;SDS011;28342;42.594;23.414;2022-09-03T12:33:46;6.88;;;5.50;;
42704;SDS011;28342;42.594;23.414;2022-09-03T12:36:13;5.65;;;5.00;;
42704;SDS011;28342;42.594;23.414;2022-09-03T12:38:38;5.72;;;5.22;;
42704;SDS011;28342;42.594;23.414;2022-09-03T12:41:04;5.68;;;5.18;;
42704;SDS011;28342;42.594;23.414;2022-09-03T12:43:29;10.27;;;5.28;;
42704;SDS011;28342;42.594;23.414;2022-09-03T12:45:55;5.45;;;4.95;;
42704;SDS011;28342;42.594;23.414;2022-09-03T12:48:20;6.18;;;5.43;;
42704;SDS011;28342;42.594;23.414;2022-09-03T12:50:47;5.82;;;5.22;;
42704;SDS011;28342;42.594;23.414;2022-09-03T12:53:16;5.82;;;4.60;;
42704;SDS011;28342;42.594;23.414;2022-09-03T12:55:49;7.30;;;4.70;;
42704;SDS011;28342;42.594;23.414;2022-09-03T12:58:34;5.45;;;4.90;;
42704;SDS011;28342;42.594;23.414;2022-09-03T13:02:12;6.50;;;4.43;;
42704;SDS011;28342;42.594;23.414;2022-09-03T13:04:23;5.18;;;4.68;;
42704;SDS011;28342;42.594;23.414;2022-09-03T13:06:54;7.38;;;4.97;;
42704;SDS011;28342;42.594;23.414;2022-09-03T13:09:38;7.75;;;5.20;;
42704;SDS011;28342;42.594;23.414;2022-09-03T13:12:06;5.28;;;4.50;;
42704;SDS011;28342;42.594;23.414;2022-09-03T13:14:44;5.07;;;4.32;;
42704;SDS011;28342;42.594;23.414;2022-09-03T13:25:29;8.13;;;4.93;;
42704;SDS011;28342;42.594;23.414;2022-09-03T13:28:06;6.20;;;5.10;;
42704;SDS011;28342;42.594;23.414;2022-09-03T13:33:27;6.70;;;5.18;;
42704;SDS011;28342;42.594;23.414;2022-09-03T13:41:57;5.88;;;4.07;;
42704;SDS011;28342;42.594;23.414;2022-09-03T13:47:08;6.57;;;4.68;;
42704;SDS011;28342;42.594;23.414;2022-09-03T13:49:38;5.00;;;4.53;;
42704;SDS011;28342;42.594;23.414;2022-09-03T13:52:26;5.13;;;4.60;;
42704;SDS011;28342;42.594;23.414;2022-09-03T13:54:56;6.32;;;4.70;;
42704;SDS011;28342;42.594;23.414;2022-09-03T14:00:26;5.93;;;4.75;;
42704;SDS011;28342;42.594;23.414;2022-09-03T14:08:00;4.25;;;3.85;;
42704;SDS011;28342;42.594;23.414;2022-09-03T14:16:07;4.70;;;4.30;;
42704;SDS011;28342;42.594;23.414;2022-09-03T14:19:01;3.90;;;3.53;;
42704;SDS011;28342;42.594;23.414;2022-09-03T14:24:26;5.65;;;3.40;;
42704;SDS011;28342;42.594;23.414;2022-09-03T14:26:56;4.18;;;3.72;;
42704;SDS011;28342;42.594;23.414;2022-09-03T14:29:30;4.32;;;3.25;;
42704;SDS011;28342;42.594;23.414;2022-09-03T14:35:01;8.85;;;4.15;;
42704;SDS011;28342;42.594;23.414;2022-09-03T14:49:09;4.05;;;3.65;;
42704;SDS011;28342;42.594;23.414;2022-09-03T14:57:26;4.80;;;4.38;;
42704;SDS011;28342;42.594;23.414;2022-09-03T15:10:49;5.65;;;5.05;;
42704;SDS011;28342;42.594;23.414;2022-09-03T15:13:32;5.22;;;4.65;;
42704;SDS011;28342;42.594;23.414;2022-09-03T15:24:09;4.97;;;4.47;;
42704;SDS011;28342;42.594;23.414;2022-09-03T15:26:50;5.05;;;4.28;;
42704;SDS011;28342;42.594;23.414;2022-09-03T15:39:58;5.25;;;3.90;;
42704;SDS011;28342;42.594;23.414;2022-09-03T15:42:29;4.38;;;3.55;;
42704;SDS011;28342;42.594;23.414;2022-09-03T15:45:00;6.13;;;3.63;;
42704;SDS011;28342;42.594;23.414;2022-09-03T16:01:47;4.90;;;4.13;;
42704;SDS011;28342;42.594;23.414;2022-09-03T16:04:33;6.20;;;3.78;;
42704;SDS011;28342;42.594;23.414;2022-09-03T16:15:48;5.95;;;5.03;;
42704;SDS011;28342;42.594;23.414;2022-09-03T16:18:25;8.95;;;5.15;;
42704;SDS011;28342;42.594;23.414;2022-09-03T16:20:58;9.63;;;5.18;;
42704;SDS011;28342;42.594;23.414;2022-09-03T16:23:31;5.60;;;5.00;;
42704;SDS011;28342;42.594;23.414;2022-09-03T16:26:10;6.40;;;4.95;;
42704;SDS011;28342;42.594;23.414;2022-09-03T16:28:47;8.27;;;5.68;;
42704;SDS011;28342;42.594;23.414;2022-09-03T16:39:35;6.18;;;5.57;;
42704;SDS011;28342;42.594;23.414;2022-09-03T16:44:59;8.35;;;6.35;;
42704;SDS011;28342;42.594;23.414;2022-09-03T16:47:36;11.15;;;6.03;;
42704;SDS011;28342;42.594;23.414;2022-09-03T16:53:03;10.63;;;6.57;;
42704;SDS011;28342;42.594;23.414;2022-09-03T16:59:17;7.85;;;6.68;;
42704;SDS011;28342;42.594;23.414;2022-09-03T17:01:52;8.75;;;6.35;;
42704;SDS011;28342;42.594;23.414;2022-09-03T17:14:50;9.82;;;7.45;;
42704;SDS011;28342;42.594;23.414;2022-09-03T17:20:09;9.02;;;7.78;;
42704;SDS011;28342;42.594;23.414;2022-09-03T17:25:16;8.10;;;7.25;;
42704;SDS011;28342;42.594;23.414;2022-09-03T17:30:55;8.75;;;7.45;;
42704;SDS011;28342;42.594;23.414;2022-09-03T17:34:18;8.95;;;7.72;;
42704;SDS011;28342;42.594;23.414;2022-09-03T17:37:21;11.65;;;8.50;;
42704;SDS011;28342;42.594;23.414;2022-09-03T17:45:53;12.63;;;8.38;;
42704;SDS011;28342;42.594;23.414;2022-09-03T17:51:03;18.45;;;12.82;;
42704;SDS011;28342;42.594;23.414;2022-09-03T18:02:03;14.75;;;8.82;;
42704;SDS011;28342;42.594;23.414;2022-09-03T18:04:46;15.73;;;7.70;;
42704;SDS011;28342;42.594;23.414;2022-09-03T18:07:37;11.48;;;8.45;;
42704;SDS011;28342;42.594;23.414;2022-09-03T18:10:44;14.27;;;8.73;;
42704;SDS011;28342;42.594;23.414;2022-09-03T18:16:38;15.70;;;8.15;;
42704;SDS011;28342;42.594;23.414;2022-09-03T18:21:53;16.33;;;8.43;;
42704;SDS011;28342;42.594;23.414;2022-09-03T18:24:43;9.10;;;7.90;;
42704;SDS011;28342;42.594;23.414;2022-09-03T18:27:35;14.88;;;7.75;;
42704;SDS011;28342;42.594;23.414;2022-09-03T18:30:21;12.07;;;8.35;;
42704;SDS011;28342;42.594;23.414;2022-09-03T18:33:05;9.60;;;8.60;;
42704;SDS011;28342;42.594;23.414;2022-09-03T18:35:49;10.82;;;8.68;;
42704;SDS011;28342;42.594;23.414;2022-09-03T18:38:34;11.35;;;8.60;;
42704;SDS011;28342;42.594;23.414;2022-09-03T18:47:48;14.05;;;8.85;;
42704;SDS011;28342;42.594;23.414;2022-09-03T18:51:08;14.02;;;9.60;;
42704;SDS011;28342;42.594;23.414;2022-09-03T18:54:17;11.73;;;9.15;;
42704;SDS011;28342;42.594;23.414;2022-09-03T18:57:13;12.70;;;8.55;;
42704;SDS011;28342;42.594;23.414;2022-09-03T19:00:29;12.40;;;9.55;;
42704;SDS011;28342;42.594;23.414;2022-09-03T19:03:22;10.40;;;8.73;;
42704;SDS011;28342;42.594;23.414;2022-09-03T19:06:25;13.13;;;8.52;;
42704;SDS011;28342;42.594;23.414;2022-09-03T19:09:35;10.25;;;8.77;;
42704;SDS011;28342;42.594;23.414;2022-09-03T19:16:33;15.63;;;9.02;;
42704;SDS011;28342;42.594;23.414;2022-09-03T19:22:08;11.23;;;8.48;;
42704;SDS011;28342;42.594;23.414;2022-09-03T19:25:04;9.85;;;8.50;;
42704;SDS011;28342;42.594;23.414;2022-09-03T19:28:11;10.15;;;8.45;;
42704;SDS011;28342;42.594;23.414;2022-09-03T19:35:38;13.68;;;9.15;;
42704;SDS011;28342;42.594;23.414;2022-09-03T19:41:04;11.93;;;8.65;;
42704;SDS011;28342;42.594;23.414;2022-09-03T19:47:15;12.23;;;9.30;;
42704;SDS011;28342;42.594;23.414;2022-09-03T19:50:26;10.05;;;8.43;;
42704;SDS011;28342;42.594;23.414;2022-09-03T19:53:16;14.25;;;9.32;;
42704;SDS011;28342;42.594;23.414;2022-09-03T19:56:12;12.68;;;10.10;;
42704;SDS011;28342;42.594;23.414;2022-09-03T19:59:02;13.43;;;10.77;;
42704;SDS011;28342;42.594;23.414;2022-09-03T20:01:54;13.38;;;10.20;;
42704;SDS011;28342;42.594;23.414;2022-09-03T20:04:42;15.35;;;10.50;;
42704;SDS011;28342;42.594;23.414;2022-09-03T20:07:30;15.15;;;10.55;;
42704;SDS011;28342;42.594;23.414;2022-09-03T20:10:16;14.02;;;10.57;;